sensor_id;sensor_type;location;lat;lon;timestamp;pressure;altitude;pressure_sealevel;temperature;humidity
23996;BME280;12207;50.076;8.848;2024-03-08T00:02:35;100166.06;;;4.91;69.10
23996;BME280;12207;50.076;8.848;2024-03-08T00:05:03;100166.28;;;4.81;69.11
23996;BME280;12207;50.076;8.848;2024-03-08T00:07:30;100160.31;;;4.79;69.77
23996;BME280;12207;50.076;8.848;2024-03-08T00:09:56;100161.78;;;4.82;69.24
23996;BME280;12207;50.076;8.848;2024-03-08T00:12:22;100155.66;;;4.81;68.98
23996;BME280;12207;50.076;8.848;2024-03-08T00:14:48;100165.78;;;4.77;69.40
23996;BME280;12207;50.076;8.848;2024-03-08T00:17:14;100154.25;;;4.70;69.94
23996;BME280;12207;50.076;8.848;2024-03-08T00:19:43;100155.41;;;4.68;70.01
23996;BME280;12207;50.076;8.848;2024-03-08T00:22:09;100152.47;;;4.63;70.29
23996;BME280;12207;50.076;8.848;2024-03-08T00:24:37;100149.16;;;4.61;71.78
23996;BME280;12207;50.076;8.848;2024-03-08T00:27:03;100164.41;;;4.59;71.48
23996;BME280;12207;50.076;8.848;2024-03-08T00:29:30;100152.50;;;4.55;71.46
23996;BME280;12207;50.076;8.848;2024-03-08T00:31:56;100158.31;;;4.50;71.55
23996;BME280;12207;50.076;8.848;2024-03-08T00:34:23;100149.53;;;4.50;71.59
23996;BME280;12207;50.076;8.848;2024-03-08T00:36:50;100150.22;;;4.43;71.54
23996;BME280;12207;50.076;8.848;2024-03-08T00:39:18;100148.41;;;4.44;72.06
23996;BME280;12207;50.076;8.848;2024-03-08T00:41:47;100142.78;;;4.39;71.72
23996;BME280;12207;50.076;8.848;2024-03-08T00:44:13;100146.59;;;4.36;72.20
23996;BME280;12207;50.076;8.848;2024-03-08T00:46:39;100136.00;;;4.36;72.45
23996;BME280;12207;50.076;8.848;2024-03-08T00:49:05;100149.59;;;4.33;72.87
23996;BME280;12207;50.076;8.848;2024-03-08T00:51:32;100148.78;;;4.33;72.57
23996;BME280;12207;50.076;8.848;2024-03-08T00:53:58;100149.94;;;4.30;72.70
23996;BME280;12207;50.076;8.848;2024-03-08T00:56:24;100138.34;;;4.31;73.31
23996;BME280;12207;50.076;8.848;2024-03-08T00:58:50;100135.38;;;4.26;73.09
23996;BME280;12207;50.076;8.848;2024-03-08T01:01:18;100139.03;;;4.25;73.25
23996;BME280;12207;50.076;8.848;2024-03-08T01:03:45;100130.28;;;4.17;73.32
23996;BME280;12207;50.076;8.848;2024-03-08T01:06:11;100126.16;;;4.14;73.49
23996;BME280;12207;50.076;8.848;2024-03-08T01:08:37;100119.19;;;4.13;73.39
23996;BME280;12207;50.076;8.848;2024-03-08T01:11:08;100116.22;;;4.08;73.84
23996;BME280;12207;50.076;8.848;2024-03-08T01:13:35;100111.25;;;4.05;73.99
23996;BME280;12207;50.076;8.848;2024-03-08T01:16:02;100117.72;;;4.02;75.36
23996;BME280;12207;50.076;8.848;2024-03-08T01:18:29;100114.47;;;3.92;75.22
23996;BME280;12207;50.076;8.848;2024-03-08T01:20:56;100110.81;;;3.93;74.83
23996;BME280;12207;50.076;8.848;2024-03-08T01:23:22;100107.34;;;3.93;75.09
23996;BME280;12207;50.076;8.848;2024-03-08T01:25:48;100100.41;;;3.84;75.39
23996;BME280;12207;50.076;8.848;2024-03-08T01:28:23;100095.94;;;3.84;75.52
23996;BME280;12207;50.076;8.848;2024-03-08T01:30:49;100093.44;;;3.83;75.98
23996;BME280;12207;50.076;8.848;2024-03-08T01:33:24;100088.66;;;3.78;76.24
23996;BME280;12207;50.076;8.848;2024-03-08T01:35:52;100084.19;;;3.78;76.98
23996;BME280;12207;50.076;8.848;2024-03-08T01:38:19;100081.56;;;3.70;76.44
23996;BME280;12207;50.076;8.848;2024-03-08T01:40:45;100076.28;;;3.70;76.09
23996;BME280;12207;50.076;8.848;2024-03-08T01:43:35;100075.78;;;3.67;76.50
23996;BME280;12207;50.076;8.848;2024-03-08T01:46:02;100078.44;;;3.67;76.54
23996;BME280;12207;50.076;8.848;2024-03-08T01:48:29;100074.63;;;3.69;77.14
23996;BME280;12207;50.076;8.848;2024-03-08T01:50:57;100071.66;;;3.64;76.49
23996;BME280;12207;50.076;8.848;2024-03-08T01:53:24;100062.72;;;3.57;76.87
23996;BME280;12207;50.076;8.848;2024-03-08T01:55:56;100065.69;;;3.62;77.12
23996;BME280;12207;50.076;8.848;2024-03-08T01:58:26;100057.78;;;3.54;77.49
23996;BME280;12207;50.076;8.848;2024-03-08T02:00:54;100053.47;;;3.53;77.86
23996;BME280;12207;50.076;8.848;2024-03-08T02:03:20;100053.00;;;3.50;77.69
23996;BME280;12207;50.076;8.848;2024-03-08T02:05:47;100058.13;;;3.43;77.63
23996;BME280;12207;50.076;8.848;2024-03-08T02:08:13;100049.69;;;3.39;78.56
23996;BME280;12207;50.076;8.848;2024-03-08T02:10:44;100048.38;;;3.35;78.64
23996;BME280;12207;50.076;8.848;2024-03-08T02:13:11;100042.59;;;3.32;78.30
23996;BME280;12207;50.076;8.848;2024-03-08T02:15:54;100042.09;;;3.36;79.51
23996;BME280;12207;50.076;8.848;2024-03-08T02:18:24;100036.66;;;3.30;78.71
23996;BME280;12207;50.076;8.848;2024-03-08T02:23:21;100027.69;;;3.31;79.32
23996;BME280;12207;50.076;8.848;2024-03-08T02:25:48;100032.34;;;3.21;79.33
23996;BME280;12207;50.076;8.848;2024-03-08T02:28:15;100028.38;;;3.25;80.12
23996;BME280;12207;50.076;8.848;2024-03-08T02:30:41;100030.72;;;3.20;79.67
23996;BME280;12207;50.076;8.848;2024-03-08T02:33:08;100033.03;;;3.15;80.49
23996;BME280;12207;50.076;8.848;2024-03-08T02:35:37;100031.38;;;3.14;80.46
23996;BME280;12207;50.076;8.848;2024-03-08T02:38:03;100026.25;;;3.12;80.43
23996;BME280;12207;50.076;8.848;2024-03-08T02:40:30;100027.72;;;3.15;81.59
23996;BME280;12207;50.076;8.848;2024-03-08T02:42:56;100037.66;;;3.13;81.66
23996;BME280;12207;50.076;8.848;2024-03-08T02:45:22;100026.41;;;3.11;81.53
23996;BME280;12207;50.076;8.848;2024-03-08T02:47:48;100027.94;;;3.05;81.56
23996;BME280;12207;50.076;8.848;2024-03-08T02:50:17;100025.75;;;3.08;81.64
23996;BME280;12207;50.076;8.848;2024-03-08T02:52:44;100019.81;;;3.06;82.00
23996;BME280;12207;50.076;8.848;2024-03-08T02:55:12;100024.28;;;3.06;82.10
23996;BME280;12207;50.076;8.848;2024-03-08T02:57:41;100028.09;;;3.03;82.16
23996;BME280;12207;50.076;8.848;2024-03-08T03:00:08;100030.25;;;3.00;82.16
23996;BME280;12207;50.076;8.848;2024-03-08T03:02:38;100019.00;;;2.90;82.23
23996;BME280;12207;50.076;8.848;2024-03-08T03:05:05;100024.13;;;2.91;82.23
23996;BME280;12207;50.076;8.848;2024-03-08T03:07:35;100015.03;;;2.94;82.82
23996;BME280;12207;50.076;8.848;2024-03-08T03:10:01;100021.47;;;2.91;82.64
23996;BME280;12207;50.076;8.848;2024-03-08T03:12:32;100015.50;;;2.89;83.04
23996;BME280;12207;50.076;8.848;2024-03-08T03:14:59;100015.19;;;2.92;82.98
23996;BME280;12207;50.076;8.848;2024-03-08T03:17:26;100010.88;;;2.91;83.12
23996;BME280;12207;50.076;8.848;2024-03-08T03:19:52;100013.19;;;2.94;83.19
23996;BME280;12207;50.076;8.848;2024-03-08T03:22:19;100003.28;;;2.96;83.27
23996;BME280;12207;50.076;8.848;2024-03-08T03:24:46;100006.25;;;2.93;83.34
23996;BME280;12207;50.076;8.848;2024-03-08T03:27:15;99995.00;;;2.91;83.62
23996;BME280;12207;50.076;8.848;2024-03-08T03:29:42;100002.44;;;2.88;83.70
23996;BME280;12207;50.076;8.848;2024-03-08T03:32:15;100002.44;;;2.88;83.98
23996;BME280;12207;50.076;8.848;2024-03-08T03:34:42;100000.78;;;2.87;84.18
23996;BME280;12207;50.076;8.848;2024-03-08T03:37:10;100003.97;;;2.82;84.47
23996;BME280;12207;50.076;8.848;2024-03-08T03:39:40;100000.81;;;2.79;84.62
23996;BME280;12207;50.076;8.848;2024-03-08T03:42:18;99996.69;;;2.76;84.69
23996;BME280;12207;50.076;8.848;2024-03-08T03:44:48;99994.19;;;2.74;84.98
23996;BME280;12207;50.076;8.848;2024-03-08T03:47:15;99994.19;;;2.74;85.09
23996;BME280;12207;50.076;8.848;2024-03-08T03:49:42;99997.84;;;2.73;85.14
23996;BME280;12207;50.076;8.848;2024-03-08T03:52:09;99996.03;;;2.74;85.30
23996;BME280;12207;50.076;8.848;2024-03-08T03:54:35;99997.66;;;2.67;85.43
23996;BME280;12207;50.076;8.848;2024-03-08T03:57:01;99986.44;;;2.65;85.67
23996;BME280;12207;50.076;8.848;2024-03-08T03:59:28;99985.75;;;2.63;86.03
23996;BME280;12207;50.076;8.848;2024-03-08T04:01:55;99980.81;;;2.60;86.23
23996;BME280;12207;50.076;8.848;2024-03-08T04:04:21;99980.81;;;2.60;86.34
23996;BME280;12207;50.076;8.848;2024-03-08T04:06:47;99975.53;;;2.60;86.54
23996;BME280;12207;50.076;8.848;2024-03-08T04:09:13;99984.78;;;2.64;86.53
23996;BME280;12207;50.076;8.848;2024-03-08T04:11:40;99984.09;;;2.62;86.25
23996;BME280;12207;50.076;8.848;2024-03-08T04:14:06;99989.41;;;2.62;86.55
23996;BME280;12207;50.076;8.848;2024-03-08T04:16:32;99974.34;;;2.62;86.76
23996;BME280;12207;50.076;8.848;2024-03-08T04:18:59;99979.81;;;2.61;86.84
23996;BME280;12207;50.076;8.848;2024-03-08T04:21:25;99974.22;;;2.56;86.83
23996;BME280;12207;50.076;8.848;2024-03-08T04:23:51;99982.78;;;2.50;87.22
23996;BME280;12207;50.076;8.848;2024-03-08T04:26:17;99976.84;;;2.48;87.50
23996;BME280;12207;50.076;8.848;2024-03-08T04:28:44;99973.84;;;2.43;87.75
23996;BME280;12207;50.076;8.848;2024-03-08T04:31:13;99975.84;;;2.40;88.12
23996;BME280;12207;50.076;8.848;2024-03-08T04:33:39;99978.16;;;2.35;88.54
23996;BME280;12207;50.076;8.848;2024-03-08T04:36:05;99986.59;;;2.31;88.68
23996;BME280;12207;50.076;8.848;2024-03-08T04:38:33;99978.00;;;2.29;89.10
23996;BME280;12207;50.076;8.848;2024-03-08T04:41:00;99969.56;;;2.33;89.67
23996;BME280;12207;50.076;8.848;2024-03-08T04:43:28;99977.16;;;2.28;89.90
23996;BME280;12207;50.076;8.848;2024-03-08T04:45:59;99972.53;;;2.22;91.39
23996;BME280;12207;50.076;8.848;2024-03-08T04:48:25;99973.16;;;2.16;91.43
23996;BME280;12207;50.076;8.848;2024-03-08T04:50:54;99974.81;;;2.01;92.34
23996;BME280;12207;50.076;8.848;2024-03-08T04:53:21;99968.50;;;1.94;92.54
23996;BME280;12207;50.076;8.848;2024-03-08T04:55:47;99964.22;;;1.85;93.33
23996;BME280;12207;50.076;8.848;2024-03-08T04:58:13;99971.25;;;1.76;93.88
23996;BME280;12207;50.076;8.848;2024-03-08T05:00:40;99968.78;;;1.75;94.79
23996;BME280;12207;50.076;8.848;2024-03-08T05:03:06;99971.06;;;1.69;94.91
23996;BME280;12207;50.076;8.848;2024-03-08T05:05:32;99961.16;;;1.63;94.45
23996;BME280;12207;50.076;8.848;2024-03-08T05:07:59;99961.97;;;1.56;95.06
23996;BME280;12207;50.076;8.848;2024-03-08T05:10:27;99966.06;;;1.50;95.26
23996;BME280;12207;50.076;8.848;2024-03-08T05:12:53;99964.41;;;1.49;95.46
23996;BME280;12207;50.076;8.848;2024-03-08T05:15:19;99962.22;;;1.45;95.22
23996;BME280;12207;50.076;8.848;2024-03-08T05:17:46;99954.13;;;1.38;95.49
23996;BME280;12207;50.076;8.848;2024-03-08T05:20:12;99955.75;;;1.31;95.93
23996;BME280;12207;50.076;8.848;2024-03-08T05:22:39;99962.78;;;1.22;96.14
23996;BME280;12207;50.076;8.848;2024-03-08T05:25:09;99957.34;;;1.24;96.17
23996;BME280;12207;50.076;8.848;2024-03-08T05:27:36;99944.47;;;1.21;96.85
23996;BME280;12207;50.076;8.848;2024-03-08T05:30:03;99948.09;;;1.20;97.19
23996;BME280;12207;50.076;8.848;2024-03-08T05:32:30;99950.09;;;1.26;97.58
23996;BME280;12207;50.076;8.848;2024-03-08T05:34:57;99938.56;;;1.27;97.32
23996;BME280;12207;50.076;8.848;2024-03-08T05:37:23;99944.00;;;1.25;97.46
23996;BME280;12207;50.076;8.848;2024-03-08T05:39:49;99941.53;;;1.24;98.11
23996;BME280;12207;50.076;8.848;2024-03-08T05:42:15;99948.47;;;1.25;98.02
23996;BME280;12207;50.076;8.848;2024-03-08T05:44:41;99950.25;;;1.24;97.91
23996;BME280;12207;50.076;8.848;2024-03-08T05:47:07;99944.16;;;1.24;97.92
23996;BME280;12207;50.076;8.848;2024-03-08T05:49:34;99947.09;;;1.13;98.21
23996;BME280;12207;50.076;8.848;2024-03-08T05:52:00;99940.34;;;1.18;98.36
23996;BME280;12207;50.076;8.848;2024-03-08T05:54:26;99935.88;;;1.11;98.63
23996;BME280;12207;50.076;8.848;2024-03-08T05:56:53;99938.50;;;1.11;98.86
23996;BME280;12207;50.076;8.848;2024-03-08T05:59:20;99936.69;;;1.11;98.92
23996;BME280;12207;50.076;8.848;2024-03-08T06:01:46;99931.78;;;1.16;99.08
23996;BME280;12207;50.076;8.848;2024-03-08T06:04:13;99938.38;;;1.20;98.45
23996;BME280;12207;50.076;8.848;2024-03-08T06:06:43;99939.19;;;1.21;98.80
23996;BME280;12207;50.076;8.848;2024-03-08T06:09:09;99936.25;;;1.24;98.76
23996;BME280;12207;50.076;8.848;2024-03-08T06:11:37;99933.97;;;1.29;98.57
23996;BME280;12207;50.076;8.848;2024-03-08T06:14:04;99934.94;;;1.28;98.50
23996;BME280;12207;50.076;8.848;2024-03-08T06:16:30;99935.78;;;1.28;98.96
23996;BME280;12207;50.076;8.848;2024-03-08T06:18:57;99936.59;;;1.29;98.89
23996;BME280;12207;50.076;8.848;2024-03-08T06:21:24;99934.31;;;1.34;98.71
23996;BME280;12207;50.076;8.848;2024-03-08T06:23:53;99941.56;;;1.32;98.22
23996;BME280;12207;50.076;8.848;2024-03-08T06:26:21;99937.44;;;1.29;98.48
23996;BME280;12207;50.076;8.848;2024-03-08T06:28:48;99944.56;;;1.37;98.40
23996;BME280;12207;50.076;8.848;2024-03-08T06:31:14;99943.28;;;1.49;98.30
23996;BME280;12207;50.076;8.848;2024-03-08T06:33:43;99946.94;;;1.56;98.20
23996;BME280;12207;50.076;8.848;2024-03-08T06:36:10;99935.91;;;1.69;98.34
23996;BME280;12207;50.076;8.848;2024-03-08T06:38:38;99944.69;;;1.78;97.81
23996;BME280;12207;50.076;8.848;2024-03-08T06:41:09;99932.81;;;1.90;97.30
23996;BME280;12207;50.076;8.848;2024-03-08T06:43:44;99940.47;;;2.01;96.90
23996;BME280;12207;50.076;8.848;2024-03-08T06:46:11;99938.16;;;2.06;96.92
23996;BME280;12207;50.076;8.848;2024-03-08T06:48:40;99934.03;;;2.20;95.96
23996;BME280;12207;50.076;8.848;2024-03-08T06:51:06;99934.69;;;2.38;95.04
23996;BME280;12207;50.076;8.848;2024-03-08T06:53:33;99932.06;;;2.54;93.74
23996;BME280;12207;50.076;8.848;2024-03-08T06:56:01;99936.50;;;2.70;92.15
23996;BME280;12207;50.076;8.848;2024-03-08T06:58:27;99934.31;;;2.90;90.20
23996;BME280;12207;50.076;8.848;2024-03-08T07:00:54;99926.53;;;3.04;89.04
23996;BME280;12207;50.076;8.848;2024-03-08T07:03:24;99932.75;;;3.28;87.60
23996;BME280;12207;50.076;8.848;2024-03-08T07:05:50;99925.72;;;3.43;87.91
23996;BME280;12207;50.076;8.848;2024-03-08T07:08:16;99923.94;;;3.66;87.14
23996;BME280;12207;50.076;8.848;2024-03-08T07:10:42;99912.22;;;3.61;85.78
23996;BME280;12207;50.076;8.848;2024-03-08T07:13:11;99915.16;;;3.74;84.46
23996;BME280;12207;50.076;8.848;2024-03-08T07:15:37;99921.00;;;3.92;83.36
23996;BME280;12207;50.076;8.848;2024-03-08T07:18:03;99916.34;;;4.17;83.01
23996;BME280;12207;50.076;8.848;2024-03-08T07:20:29;99912.75;;;4.10;82.25
23996;BME280;12207;50.076;8.848;2024-03-08T07:22:55;99913.34;;;4.20;81.82
23996;BME280;12207;50.076;8.848;2024-03-08T07:25:22;99912.16;;;4.45;80.99
23996;BME280;12207;50.076;8.848;2024-03-08T07:27:48;99898.44;;;4.57;79.77
23996;BME280;12207;50.076;8.848;2024-03-08T07:30:14;99899.84;;;4.82;79.47
23996;BME280;12207;50.076;8.848;2024-03-08T07:32:59;99895.66;;;5.02;78.24
23996;BME280;12207;50.076;8.848;2024-03-08T07:35:25;99894.84;;;5.17;78.11
23996;BME280;12207;50.076;8.848;2024-03-08T07:37:52;99892.44;;;5.36;75.61
23996;BME280;12207;50.076;8.848;2024-03-08T07:40:21;99901.50;;;5.27;76.14
23996;BME280;12207;50.076;8.848;2024-03-08T07:42:47;99889.31;;;5.69;74.93
23996;BME280;12207;50.076;8.848;2024-03-08T07:45:13;99888.22;;;5.78;73.51
23996;BME280;12207;50.076;8.848;2024-03-08T07:47:39;99887.13;;;6.08;73.03
23996;BME280;12207;50.076;8.848;2024-03-08T07:50:06;99888.44;;;6.19;72.43
23996;BME280;12207;50.076;8.848;2024-03-08T07:52:34;99881.78;;;6.51;70.88
23996;BME280;12207;50.076;8.848;2024-03-08T07:55:00;99875.75;;;6.42;70.06
23996;BME280;12207;50.076;8.848;2024-03-08T07:57:27;99878.81;;;6.39;70.06
23996;BME280;12207;50.076;8.848;2024-03-08T07:59:53;99876.56;;;6.36;70.87
23996;BME280;12207;50.076;8.848;2024-03-08T08:02:19;99867.09;;;6.62;69.76
23996;BME280;12207;50.076;8.848;2024-03-08T08:04:48;99878.63;;;6.69;69.68
23996;BME280;12207;50.076;8.848;2024-03-08T08:07:14;99868.91;;;6.55;70.31
23996;BME280;12207;50.076;8.848;2024-03-08T08:09:41;99869.59;;;6.35;69.89
23996;BME280;12207;50.076;8.848;2024-03-08T08:12:09;99864.88;;;6.16;71.62
23996;BME280;12207;50.076;8.848;2024-03-08T08:14:41;99858.50;;;6.32;70.89
23996;BME280;12207;50.076;8.848;2024-03-08T08:17:10;99864.84;;;6.59;70.12
23996;BME280;12207;50.076;8.848;2024-03-08T08:19:36;99855.41;;;6.91;69.27
23996;BME280;12207;50.076;8.848;2024-03-08T08:22:02;99863.50;;;7.10;67.49
23996;BME280;12207;50.076;8.848;2024-03-08T08:24:29;99858.72;;;6.65;68.98
23996;BME280;12207;50.076;8.848;2024-03-08T08:26:55;99853.97;;;6.88;68.55
23996;BME280;12207;50.076;8.848;2024-03-08T08:29:21;99849.41;;;6.75;68.52
23996;BME280;12207;50.076;8.848;2024-03-08T08:31:48;99855.59;;;7.24;68.25
23996;BME280;12207;50.076;8.848;2024-03-08T08:34:18;99841.72;;;6.94;67.05
23996;BME280;12207;50.076;8.848;2024-03-08T08:36:51;99840.97;;;7.06;67.57
23996;BME280;12207;50.076;8.848;2024-03-08T08:39:17;99842.91;;;7.26;66.33
23996;BME280;12207;50.076;8.848;2024-03-08T08:41:43;99827.63;;;7.54;65.49
23996;BME280;12207;50.076;8.848;2024-03-08T08:44:10;99835.91;;;8.12;64.85
23996;BME280;12207;50.076;8.848;2024-03-08T08:46:38;99823.38;;;8.06;63.03
23996;BME280;12207;50.076;8.848;2024-03-08T08:49:05;99824.44;;;8.18;63.04
23996;BME280;12207;50.076;8.848;2024-03-08T08:51:32;99826.06;;;7.99;64.28
23996;BME280;12207;50.076;8.848;2024-03-08T08:54:01;99827.25;;;7.83;63.51
23996;BME280;12207;50.076;8.848;2024-03-08T08:56:27;99808.81;;;8.28;63.81
23996;BME280;12207;50.076;8.848;2024-03-08T08:58:54;99819.91;;;8.18;62.06
23996;BME280;12207;50.076;8.848;2024-03-08T09:01:21;99813.78;;;8.44;61.07
23996;BME280;12207;50.076;8.848;2024-03-08T09:03:47;99820.56;;;9.24;60.34
23996;BME280;12207;50.076;8.848;2024-03-08T09:06:13;99815.41;;;8.65;60.32
23996;BME280;12207;50.076;8.848;2024-03-08T09:08:40;99809.03;;;8.60;60.66
23996;BME280;12207;50.076;8.848;2024-03-08T09:11:06;99805.91;;;8.76;60.88
23996;BME280;12207;50.076;8.848;2024-03-08T09:13:35;99802.25;;;8.50;59.88
23996;BME280;12207;50.076;8.848;2024-03-08T09:16:05;99799.16;;;8.60;60.09
23996;BME280;12207;50.076;8.848;2024-03-08T09:18:32;99783.97;;;8.74;60.38
23996;BME280;12207;50.076;8.848;2024-03-08T09:20:59;99778.47;;;9.07;59.01
23996;BME280;12207;50.076;8.848;2024-03-08T09:23:25;99783.38;;;8.45;60.47
23996;BME280;12207;50.076;8.848;2024-03-08T09:25:57;99783.19;;;8.20;60.56
23996;BME280;12207;50.076;8.848;2024-03-08T09:28:26;99783.47;;;8.97;60.49
23996;BME280;12207;50.076;8.848;2024-03-08T09:30:53;99778.44;;;9.58;57.73
23996;BME280;12207;50.076;8.848;2024-03-08T09:33:19;99765.13;;;9.76;56.38
23996;BME280;12207;50.076;8.848;2024-03-08T09:35:48;99771.28;;;9.07;57.63
23996;BME280;12207;50.076;8.848;2024-03-08T09:38:20;99759.06;;;8.80;57.96
23996;BME280;12207;50.076;8.848;2024-03-08T09:40:46;99760.88;;;8.86;57.73
23996;BME280;12207;50.076;8.848;2024-03-08T09:43:13;99756.03;;;9.21;58.92
23996;BME280;12207;50.076;8.848;2024-03-08T09:45:43;99753.16;;;9.54;56.97
23996;BME280;12207;50.076;8.848;2024-03-08T09:48:11;99744.47;;;9.58;57.11
23996;BME280;12207;50.076;8.848;2024-03-08T09:50:39;99744.53;;;10.33;54.71
23996;BME280;12207;50.076;8.848;2024-03-08T09:53:05;99731.41;;;10.00;54.22
23996;BME280;12207;50.076;8.848;2024-03-08T09:55:37;99727.25;;;10.47;54.77
23996;BME280;12207;50.076;8.848;2024-03-08T09:58:07;99726.59;;;10.88;54.60
23996;BME280;12207;50.076;8.848;2024-03-08T10:00:53;99722.50;;;10.06;54.42
23996;BME280;12207;50.076;8.848;2024-03-08T10:03:22;99713.22;;;10.09;53.40
23996;BME280;12207;50.076;8.848;2024-03-08T10:05:49;99717.38;;;10.30;54.60
23996;BME280;12207;50.076;8.848;2024-03-08T10:08:19;99715.00;;;10.58;52.67
23996;BME280;12207;50.076;8.848;2024-03-08T10:10:46;99719.91;;;10.79;52.76
23996;BME280;12207;50.076;8.848;2024-03-08T10:13:12;99709.41;;;10.78;52.00
23996;BME280;12207;50.076;8.848;2024-03-08T10:15:40;99700.63;;;9.91;53.04
23996;BME280;12207;50.076;8.848;2024-03-08T10:18:06;99700.31;;;9.99;54.58
23996;BME280;12207;50.076;8.848;2024-03-08T10:20:33;99703.75;;;10.31;53.06
23996;BME280;12207;50.076;8.848;2024-03-08T10:23:00;99696.28;;;11.06;51.46
23996;BME280;12207;50.076;8.848;2024-03-08T10:25:26;99688.03;;;11.61;51.72
23996;BME280;12207;50.076;8.848;2024-03-08T10:27:52;99691.69;;;11.37;49.66
23996;BME280;12207;50.076;8.848;2024-03-08T10:30:18;99685.38;;;10.71;51.79
23996;BME280;12207;50.076;8.848;2024-03-08T10:32:46;99685.22;;;11.56;52.11
23996;BME280;12207;50.076;8.848;2024-03-08T10:35:12;99682.19;;;11.64;51.21
23996;BME280;12207;50.076;8.848;2024-03-08T10:37:51;99685.66;;;11.11;49.71
23996;BME280;12207;50.076;8.848;2024-03-08T10:40:29;99684.59;;;11.31;50.06
23996;BME280;12207;50.076;8.848;2024-03-08T10:42:59;99678.03;;;11.26;49.47
23996;BME280;12207;50.076;8.848;2024-03-08T10:48:26;99668.19;;;10.42;52.30
23996;BME280;12207;50.076;8.848;2024-03-08T10:51:03;99664.19;;;10.33;50.78
23996;BME280;12207;50.076;8.848;2024-03-08T10:53:30;99662.19;;;10.95;52.01
23996;BME280;12207;50.076;8.848;2024-03-08T10:55:57;99659.78;;;11.05;50.10
23996;BME280;12207;50.076;8.848;2024-03-08T10:58:24;99655.72;;;11.14;50.39
23996;BME280;12207;50.076;8.848;2024-03-08T11:00:57;99650.69;;;11.48;49.23
23996;BME280;12207;50.076;8.848;2024-03-08T11:06:16;99654.44;;;11.70;48.48
23996;BME280;12207;50.076;8.848;2024-03-08T11:08:45;99641.13;;;11.52;48.50
23996;BME280;12207;50.076;8.848;2024-03-08T11:11:29;99644.44;;;11.77;49.41
23996;BME280;12207;50.076;8.848;2024-03-08T11:13:59;99635.44;;;11.18;50.50
23996;BME280;12207;50.076;8.848;2024-03-08T11:18:55;99639.13;;;11.59;51.17
23996;BME280;12207;50.076;8.848;2024-03-08T11:21:25;99621.94;;;11.25;50.13
23996;BME280;12207;50.076;8.848;2024-03-08T11:24:10;99630.72;;;11.32;50.11
23996;BME280;12207;50.076;8.848;2024-03-08T11:26:37;99627.59;;;11.47;50.91
23996;BME280;12207;50.076;8.848;2024-03-08T11:32:08;99616.31;;;11.91;48.56
23996;BME280;12207;50.076;8.848;2024-03-08T11:34:41;99597.44;;;11.21;49.50
23996;BME280;12207;50.076;8.848;2024-03-08T11:37:19;99601.78;;;11.34;49.96
23996;BME280;12207;50.076;8.848;2024-03-08T11:39:55;99592.56;;;11.30;50.95
23996;BME280;12207;50.076;8.848;2024-03-08T11:42:25;99601.69;;;11.52;50.01
23996;BME280;12207;50.076;8.848;2024-03-08T11:44:54;99588.63;;;11.56;50.61
23996;BME280;12207;50.076;8.848;2024-03-08T11:47:21;99582.88;;;11.17;49.80
23996;BME280;12207;50.076;8.848;2024-03-08T11:49:48;99581.28;;;11.51;49.50
23996;BME280;12207;50.076;8.848;2024-03-08T11:52:16;99572.72;;;11.19;49.91
23996;BME280;12207;50.076;8.848;2024-03-08T11:54:53;99578.50;;;11.81;50.50
23996;BME280;12207;50.076;8.848;2024-03-08T11:57:22;99566.81;;;11.41;49.32
23996;BME280;12207;50.076;8.848;2024-03-08T11:59:53;99569.47;;;11.41;50.77
23996;BME280;12207;50.076;8.848;2024-03-08T12:02:19;99560.53;;;11.93;50.26
23996;BME280;12207;50.076;8.848;2024-03-08T12:04:47;99563.16;;;12.17;48.81
23996;BME280;12207;50.076;8.848;2024-03-08T12:07:13;99558.72;;;12.11;47.75
23996;BME280;12207;50.076;8.848;2024-03-08T12:09:43;99554.00;;;12.29;49.34
23996;BME280;12207;50.076;8.848;2024-03-08T12:12:15;99552.13;;;12.30;48.28
23996;BME280;12207;50.076;8.848;2024-03-08T12:14:44;99557.50;;;12.30;48.11
23996;BME280;12207;50.076;8.848;2024-03-08T12:17:10;99546.28;;;12.33;48.42
23996;BME280;12207;50.076;8.848;2024-03-08T12:19:37;99538.22;;;12.33;48.32
23996;BME280;12207;50.076;8.848;2024-03-08T12:22:10;99546.91;;;12.23;48.05
23996;BME280;12207;50.076;8.848;2024-03-08T12:24:36;99537.06;;;11.42;49.23
23996;BME280;12207;50.076;8.848;2024-03-08T12:27:18;99528.06;;;11.72;49.71
23996;BME280;12207;50.076;8.848;2024-03-08T12:29:45;99533.31;;;11.67;49.49
23996;BME280;12207;50.076;8.848;2024-03-08T12:32:12;99532.50;;;12.01;50.37
23996;BME280;12207;50.076;8.848;2024-03-08T12:34:39;99529.00;;;11.89;49.07
23996;BME280;12207;50.076;8.848;2024-03-08T12:37:05;99531.09;;;11.75;49.74
23996;BME280;12207;50.076;8.848;2024-03-08T12:39:33;99526.78;;;11.86;49.99
23996;BME280;12207;50.076;8.848;2024-03-08T12:42:00;99519.44;;;11.70;49.27
23996;BME280;12207;50.076;8.848;2024-03-08T12:44:26;99516.75;;;11.58;50.50
23996;BME280;12207;50.076;8.848;2024-03-08T12:46:54;99511.38;;;11.58;50.12
23996;BME280;12207;50.076;8.848;2024-03-08T12:49:20;99509.41;;;11.07;50.84
23996;BME280;12207;50.076;8.848;2024-03-08T12:51:49;99501.69;;;11.10;50.74
23996;BME280;12207;50.076;8.848;2024-03-08T12:54:16;99491.56;;;11.12;51.58
23996;BME280;12207;50.076;8.848;2024-03-08T12:56:42;99496.91;;;11.59;51.49
23996;BME280;12207;50.076;8.848;2024-03-08T12:59:08;99492.47;;;12.00;51.06
23996;BME280;12207;50.076;8.848;2024-03-08T13:01:36;99490.28;;;12.25;49.93
23996;BME280;12207;50.076;8.848;2024-03-08T13:04:05;99486.22;;;12.39;48.95
23996;BME280;12207;50.076;8.848;2024-03-08T13:06:32;99481.56;;;12.80;48.62
23996;BME280;12207;50.076;8.848;2024-03-08T13:09:00;99477.56;;;12.66;48.52
23996;BME280;12207;50.076;8.848;2024-03-08T13:11:31;99476.53;;;12.38;49.55
23996;BME280;12207;50.076;8.848;2024-03-08T13:14:08;99473.47;;;12.18;48.22
23996;BME280;12207;50.076;8.848;2024-03-08T13:16:38;99471.03;;;11.76;48.71
23996;BME280;12207;50.076;8.848;2024-03-08T13:19:04;99467.81;;;12.03;48.97
23996;BME280;12207;50.076;8.848;2024-03-08T13:21:30;99471.22;;;11.86;49.12
23996;BME280;12207;50.076;8.848;2024-03-08T13:23:57;99467.75;;;12.14;49.18